HALF-HOURLY OBSERVATIONS INDEX

007

Murchison

32KM SOUTH OF JUNA DOWNS

Site: 007CWA
Alt: 850m
104km WNW of NEWMAN


  Time     Wind        Temp  DP   Baro     Rain since   Rain past  Vis(m), Cloud(base in m), Weather
  local        km/h                         9am  last   hr   10m    
Sun 07:00   SW 13/ 19  28.2  0.0  1011.2    0.0   0.0   0.0   0.0   10000 
Sun 07:30    S 15/ 20  29.3 -1.9  1011.4    0.0   0.0   0.0   0.0   10000 
Sun 08:00  SSE 13/ 20  30.3 -3.4  1011.5    0.0   0.0   0.0   0.0   10000 
Sun 08:30  SSE 20/ 28  31.6 -2.4  1011.6    0.0   0.0   0.0   0.0   10000 
Sun 09:00    S 20/ 30  31.9 -2.2  1011.5    0.0   0.0   0.0   0.0   10000 
Sun 09:30  SSE 19/ 30  32.8 -1.5  1011.4    0.0   0.0   0.0   0.0   10000 
Sun 10:00  ESE 19/ 30  33.8 -0.7  1011.2    0.0   0.0   0.0   0.0   10000 
Sun 10:30  SSE 17/ 32  34.0 -0.6  1010.9    0.0   0.0   0.0   0.0   10000 
Sun 11:00    S 13/ 26  34.3 -0.4  1010.4    0.0   0.0   0.0   0.0   10000 
Sun 11:30   SW 13/ 20  34.9 -1.2  1010.1    0.0   0.0   0.0   0.0   10000 
Sun 12:00    S  7/ 15  35.2 -1.0  1009.9    0.0   0.0   0.0   0.0   10000 
Sun 12:30   SE 20/ 26  36.1 -1.7  1009.7    0.0   0.0   0.0   0.0   10000 

40KM EAST OF JUNA DOWNS

Site: 007BRY
Alt: 615m
96km NW of NEWMAN


  Time     Wind        Temp  DP   Baro     Rain since   Rain past  Vis(m), Cloud(base in m), Weather
  local        km/h                         9am  last   hr   10m    
Sun 07:00    S 19/ 24  28.4  1.8  1010.6    0.0   0.0   0.0   0.0   10000 
Sun 07:30  SSE 22/ 30  29.8  1.3  1010.9    0.0   0.0   0.0   0.0   10000 
Sun 08:00  SSE 20/ 28  30.5  1.9  1011.0    0.0   0.0   0.0   0.0   10000 
Sun 08:30  SSE 20/ 32  31.7  1.9  1011.1    0.0   0.0   0.0   0.0   10000 
Sun 09:00  SSE 22/ 33  32.4  2.5  1010.9    0.0   0.0   0.0   0.0   10000 
Sun 09:30  SSE 24/ 32  33.4  2.3  1010.9    0.0   0.0   0.0   0.0   10000 
Sun 10:00    S 22/ 32  33.4  3.3  1010.7    0.0   0.0   0.0   0.0   10000 
Sun 10:30    S 22/ 30  34.0  5.5  1010.3    0.0   0.0   0.0   0.0   10000 
Sun 11:00    S 20/ 33  34.7  6.1  1009.9    0.0   0.0   0.0   0.0   10000 
Sun 11:30    S 13/ 20  35.4  6.6  1009.7    0.0   0.0   0.0   0.0   10000 
Sun 12:00  NNE 15/ 20  35.7  6.9  1009.3    0.0   0.0   0.0   0.0   10000 
Sun 12:30  ENE 11/ 20  36.4  6.6  1009.1    0.0   0.0   0.0   0.0   10000 

DEGRUSSA COPPER MINE

Site: 007DGU
Alt: 475m
141km NNE of MEEKATHARRA


  Time     Wind        Temp  DP   Baro     Rain since   Rain past  Vis(m), Cloud(base in m), Weather
  local        km/h                         9am  last   hr   10m    
Sun 07:00    E 13/ 20  27.4  1.0  1010.5    0.0   0.0   0.0   0.0   10000 
Sun 07:30  ENE 11/ 19  29.0  2.3  1010.8    0.0   0.0   0.0   0.0   10000 
Sun 08:00  ENE 15/ 22  30.3  4.1  1010.9    0.0   0.0   0.0   0.0   10000 
Sun 08:30  ENE 13/ 20  31.6  2.7  1011.0    0.8   0.8   0.8   0.0   10000 
Sun 09:00  ENE 13/ 24  32.6 -0.5  1010.8    0.8   0.0   0.8   0.0   10000 
Sun 09:30    N  9/ 19  33.9 -0.7  1010.6    0.0   0.0   0.0   0.0   10000 
Sun 10:00    E  9/ 19  33.4  0.1  1010.6    0.0   0.0   0.0   0.0   10000 
Sun 10:30    S  6/  9  34.2 -0.4  1010.1    0.0   0.0   0.0   0.0   10000 
Sun 11:00   SE  9/ 19  36.0 -0.4  1009.8    0.0   0.0   0.0   0.0   10000 
Sun 11:30   NW  9/ 20  35.5  0.6  1009.6    0.0   0.0   0.0   0.0   10000 
Sun 12:00  WNW 19/ 30  35.7 -0.6  1009.2    0.0   0.0   0.0   0.0   10000 
Sun 12:30    W  9/ 24  36.5  0.0  1008.8    0.0   0.0   0.0   0.0   10000 

MEEKATHARRA AIRPORT

Site: 007045
Alt: 517.0m
5km SE of MEEKATHARRA


  Time     Wind        Temp  DP   Baro     Rain since   Rain past  Vis(m), Cloud(base in m), Weather
  local        km/h                         9am  last   hr   10m    
Sun 07:00    S 15/ 19  23.5  0.6  1011.7    0.0   0.0   0.0   0.0   10000 
Sun 07:30    S 17/ 20  25.5  0.2  1011.8    0.0   0.0   0.0   0.0   10000 
Sun 08:00  SSE 15/ 22  27.1  0.0  1012.0    0.0   0.0   0.0   0.0   10000 
Sun 08:30   SE 15/ 20  28.2  0.0  1011.9    0.0   0.0   0.0   0.0   10000 
Sun 09:00    E 15/ 22  29.6  1.1  1011.8    0.0   0.0   0.0   0.0   10000 
Sun 09:30    E 13/ 20  30.0  0.6  1011.5    0.0   0.0   0.0   0.0   10000 
Sun 10:00   SE 11/ 20  31.9  0.1  1011.3    0.0   0.0   0.0   0.0   10000 
Sun 10:30    E 11/ 17  31.7 -2.3  1010.9    0.0   0.0   0.0   0.0   10000 
Sun 11:00  SSW  7/ 13  32.3 -4.6  1010.7    0.0   0.0   0.0   0.0   10000 
Sun 11:30    N  9/ 13  33.1 -4.0  1010.4    0.0   0.0   0.0   0.0   10000 
Sun 12:00    E  9/ 15  33.6 -3.6  1010.0    0.0   0.0   0.0   0.0   10000 
Sun 12:30    S  9/ 20  34.6 -6.2  1009.7    0.0   0.0   0.0   0.0   10000 

MOUNT MAGNET AERO

Site: 007600
Alt: 407.0m
6km S of MOUNT MAGNET


  Time     Wind        Temp  DP   Baro     Rain since   Rain past  Vis(m), Cloud(base in m), Weather
  local        km/h                         9am  last   hr   10m    
Sun 07:00  ESE 24/ 39  22.3  6.5  1012.9    0.0   0.0   0.0   0.0   10000 
Sun 07:30  ESE 24/ 32  23.4  6.7  1013.1    0.0   0.0   0.0   0.0   10000 
Sun 08:00  ESE 24/ 33  24.2  6.9  1013.1    0.0   0.0   0.0   0.0   10000 
Sun 08:30  ESE 22/ 30  25.0  6.7  1013.0    0.0   0.0   0.0   0.0   10000 
Sun 09:00  ESE 24/ 33  25.8  5.9  1013.0    0.0   0.0   0.0   0.0   10000 
Sun 09:30  ESE 20/ 32  26.4  5.9  1012.8    0.0   0.0   0.0   0.0   10000 
Sun 10:00  ESE 20/ 33  27.8  6.0  1012.5    0.0   0.0   0.0   0.0   10000 
Sun 10:30  ESE 20/ 35  28.0  5.6  1012.2    0.0   0.0   0.0   0.0   10000 
Sun 11:00    E 19/ 32  29.5  5.6  1011.9    0.0   0.0   0.0   0.0   10000 
Sun 11:30  SSE 15/ 28  29.7  5.1  1011.5    0.0   0.0   0.0   0.0   10000 
Sun 12:00    E 13/ 20  30.3  4.1  1011.1    0.0   0.0   0.0   0.0   10000 
Sun 12:30    E 11/ 20  31.8  3.8  1010.7    0.0   0.0   0.0   0.0   10000 

NEWMAN AERO

Site: 007176
Alt: 524.0m
10km SE of NEWMAN


  Time     Wind        Temp  DP   Baro     Rain since   Rain past  Vis(m), Cloud(base in m), Weather
  local        km/h                         9am  last   hr   10m    
Sun 07:00   NE  2/  7  26.3 16.5  1009.9    0.0   0.0   0.0   0.0   10000 
Sun 07:30  NNE  4/  9  27.4 16.4  1010.1    0.0   0.0   0.0   0.0   10000 
Sun 08:00  NNW  9/ 15  28.2 15.8  1010.1    0.0   0.0   0.0   0.0   10000 
Sun 08:30   NE  9/ 13  29.9 14.8  1010.2    0.0   0.0   0.0   0.0   10000 
Sun 09:00    E  9/ 17  31.8 12.6  1010.1    0.0   0.0   0.0   0.0   10000 
Sun 09:30   SE 13/ 24  32.7 10.7  1009.9    0.0   0.0   0.0   0.0   10000 
Sun 10:00   SE 15/ 22  33.8  9.8  1009.6    0.0   0.0   0.0   0.0   10000 
Sun 10:30   SE 13/ 28  34.8  9.9  1009.2    0.0   0.0   0.0   0.0   10000 
Sun 11:00    S  9/ 22  34.8 10.6  1008.9    0.0   0.0   0.0   0.0   10000 
Sun 11:30    E 15/ 20  35.5  9.8  1008.6    0.0   0.0   0.0   0.0   10000 
Sun 12:00    E  9/ 20  36.6  9.2  1008.3    0.0   0.0   0.0   0.0   10000 
Sun 12:30  NNE 13/ 26  36.9  8.7  1007.9    0.0   0.0   0.0   0.0   10000 

PARABURDOO AERO

Site: 007185
Alt: 423.7m
3km NNW of PARABURDOO


  Time     Wind        Temp  DP   Baro     Rain since   Rain past  Vis(m), Cloud(base in m), Weather
  local        km/h                         9am  last   hr   10m    
Sun 07:00   NW  6/ 11  28.7  0.4  1009.9   ----  ----  ----  ----   10000 
Sun 07:30    S 17/ 22  30.5 -1.0  1009.8   ----  ----  ----  ----   10000 
Sun 08:00  SSE 17/ 22  31.6 -1.2  1009.9   ----  ----  ----  ----   10000 
Sun 08:30  SSE 17/ 22  32.6 -0.5  1009.9   ----  ----  ----  ----   10000 
Sun 09:00   SE 15/ 24  33.9  0.5  1009.8   ----  ----  ----  ----   10000 
Sun 09:30    S 13/ 24  34.5  1.0  1009.6   ----  ----  ----  ----   10000 
Sun 10:00  SSE 17/ 28  35.2  0.3  1009.3   ----  ----  ----  ----   10000 
Sun 10:30    N  7/ 24  35.7  0.7  1009.1   ----  ----  ----  ----   10000 
Sun 11:00  SSW 20/ 32  35.5  0.6  1008.5   ----  ----  ----  ----   10000 
Sun 11:30    S 11/ 20  36.5  1.3  1008.4   ----  ----  ----  ----   10000 
Sun 12:00  SSE 19/ 30  37.2  1.8  1008.0   ----  ----  ----  ----   10000 
Sun 12:30    W 20/ 26  38.0  1.1  1007.7   ----   0.0   0.0  ----   10000 

WEST ANGELAS MINE

Site: 007ANG
Alt: 685m
108km WNW of NEWMAN


  Time     Wind        Temp  DP   Baro     Rain since   Rain past  Vis(m), Cloud(base in m), Weather
  local        km/h                         9am  last   hr   10m    
Sun 07:00    S  7/ 17  28.7 -1.4  1011.3    0.0   0.0   0.0   0.0   10000 
Sun 07:30   SE  9/ 22  29.8 -1.5  1011.6    0.0   0.0   0.0   0.0   10000 
Sun 08:00  SSE 15/ 35  30.7 -1.9  1011.6    0.0   0.0   0.0   0.0   10000 
Sun 08:30  ESE 22/ 43  31.8 -1.1  1011.8    0.0   0.0   0.0   0.0   10000 
Sun 09:00   SE 19/ 30  32.2 -0.8  1011.7    0.0   0.0   0.0   0.0   10000 
Sun 09:30  SSE 17/ 32  33.4  0.1  1011.6    0.0   0.0   0.0   0.0   10000 
Sun 10:00  ESE 11/ 26  33.5  0.2  1011.3    0.0   0.0   0.0   0.0   10000 
Sun 10:30   NW 11/ 20  34.4  0.9  1011.0    0.0   0.0   0.0   0.0   10000 
Sun 11:00    S 11/ 22  34.9  1.3  1010.7    0.0   0.0   0.0   0.0   10000 
Sun 11:30    W  7/ 19  34.7  1.1  1010.5    0.0   0.0   0.0   0.0   10000 
Sun 12:00   SW 11/ 19  35.6  0.6  1010.2    0.0   0.0   0.0   0.0   10000 
Sun 12:30  WSW 13/ 19  35.1  1.5  1009.9    0.0   0.0   0.0   0.0   10000